Time;durP1;ratioP1;P1;durP2;ratioP2;P2;SDS_P1;SDS_P2;PMS_P1;PMS_P2;Temp;Humidity;BMP_temperature;BMP_pressure;BME280_temperature;BME280_humidity;BME280_pressure;Samples;Min_cycle;Max_cycle;Signal;HPM_P1;HPM_P2
2023/01/30 00:00:00;;;;;;;;;;;25.10;99.90;;;;;;5089234;28;19947;-66
2023/01/30 00:02:27;;;;;;;;;;;25.20;99.90;;;;;;5084452;28;19963;-65
2023/01/30 00:04:53;;;;;;;;;;;25.20;99.90;;;;;;5093318;28;19912;-66
2023/01/30 00:07:38;;;;;;;;;;;25.10;99.90;;;;;;5092751;28;19920;-68
2023/01/30 00:10:05;;;;;;;;;;;25.20;99.90;;;;;;5085409;28;19918;-65
2023/01/30 00:12:32;;;;;;;;;;;25.30;99.90;;;;;;5092942;28;19912;-67
2023/01/30 00:14:58;;;;;;;;;;;25.20;99.90;;;;;;5081880;28;19943;-65
2023/01/30 00:17:25;;;;;;;;;;;25.30;99.90;;;;;;5092392;28;19911;-66
2023/01/30 00:19:52;;;;;;;;;;;25.30;99.90;;;;;;5089707;28;20373;-69
2023/01/30 00:22:18;;;;;;;;;;;25.30;99.90;;;;;;5092223;28;19912;-70
2023/01/30 00:24:45;;;;;;;;;;;25.30;99.90;;;;;;5081751;28;20291;-65
2023/01/30 00:27:11;;;;;;;;;;;25.40;99.90;;;;;;5077402;28;19921;-65
2023/01/30 00:29:38;;;;;;;;;;;25.40;99.90;;;;;;5089628;28;19918;-71
2023/01/30 00:32:05;;;;;;;;;;;25.40;99.90;;;;;;5091897;28;20375;-68
2023/01/30 00:34:31;;;;;;;;;;;25.30;99.90;;;;;;5082536;28;19916;-64
2023/01/30 00:36:58;;;;;;;;;;;25.30;99.90;;;;;;5091926;28;20356;-65
2023/01/30 00:39:25;;;;;;;;;;;25.40;99.90;;;;;;5092150;28;19913;-67
2023/01/30 00:47:24;;;;;;;;;;;25.50;99.90;;;;;;5078094;28;19934;-68
2023/01/30 00:49:51;;;;;;;;;;;25.50;99.90;;;;;;5090943;28;20377;-66
2023/01/30 00:52:17;;;;;;;;;;;25.70;99.90;;;;;;5085322;28;19973;-68
2023/01/30 00:54:44;;;;;;;;;;;25.90;99.90;;;;;;5091190;28;19919;-68
2023/01/30 00:57:11;;;;;;;;;;;26.00;99.90;;;;;;5087466;28;19995;-67
2023/01/30 00:59:37;;;;;;;;;;;26.00;99.90;;;;;;5080337;28;19948;-67
2023/01/30 01:02:04;;;;;;;;;;;26.00;99.90;;;;;;5090765;28;19915;-67
2023/01/30 01:04:30;;;;;;;;;;;26.10;99.90;;;;;;5092940;28;20292;-68
2023/01/30 01:06:57;;;;;;;;;;;26.00;99.90;;;;;;5092150;28;19912;-65
2023/01/30 01:09:24;;;;;;;;;;;26.10;99.90;;;;;;5081288;28;19918;-70
2023/01/30 01:11:50;;;;;;;;;;;26.10;99.90;;;;;;5092932;28;19919;-67
2023/01/30 01:14:17;;;;;;;;;;;26.00;99.90;;;;;;5092897;28;19915;-68
2023/01/30 01:16:43;;;;;;;;;;;26.00;99.90;;;;;;5093059;28;19912;-66
2023/01/30 01:19:10;;;;;;;;;;;26.10;99.90;;;;;;5089099;28;19969;-69
2023/01/30 01:21:37;;;;;;;;;;;26.30;99.90;;;;;;5101058;28;19916;-69
2023/01/30 01:24:03;;;;;;;;;;;26.20;99.90;;;;;;5091140;28;20403;-67
2023/01/30 01:26:30;;;;;;;;;;;26.30;99.90;;;;;;5099966;28;19965;-69
2023/01/30 01:28:57;;;;;;;;;;;26.50;99.90;;;;;;5089111;28;20368;-66
2023/01/30 01:31:24;;;;;;;;;;;26.70;99.90;;;;;;5106338;28;19908;-69
2023/01/30 01:33:51;;;;;;;;;;;26.80;99.90;;;;;;5093937;28;19915;-70
2023/01/30 01:36:18;;;;;;;;;;;26.90;99.90;;;;;;5091415;28;19924;-69
2023/01/30 01:38:44;;;;;;;;;;;27.10;99.90;;;;;;5091591;28;19918;-66
2023/01/30 01:41:12;;;;;;;;;;;27.30;99.90;;;;;;5090121;28;20002;-69
2023/01/30 01:43:58;;;;;;;;;;;27.80;99.90;;;;;;5087479;28;19932;-71
2023/01/30 01:46:27;;;;;;;;;;;28.40;99.90;;;;;;5091411;28;19920;-68
2023/01/30 01:48:55;;;;;;;;;;;28.90;99.90;;;;;;5095171;28;20283;-67
2023/01/30 01:51:34;;;;;;;;;;;29.20;99.90;;;;;;5102034;28;19960;-66
2023/01/30 01:54:18;;;;;;;;;;;29.30;99.90;;;;;;5092561;28;19912;-69
2023/01/30 01:56:46;;;;;;;;;;;29.70;99.90;;;;;;5092763;28;20403;-71
2023/01/30 01:59:20;;;;;;;;;;;30.10;99.90;;;;;;5092345;28;20466;-66
2023/01/30 02:01:48;;;;;;;;;;;30.20;99.90;;;;;;5090226;28;20421;-68
2023/01/30 02:05:00;;;;;;;;;;;30.20;99.70;;;;;;5091708;28;19912;-65
2023/01/30 02:07:01;;;;;;;;;;;30.30;99.50;;;;;;5091007;28;20349;-68
2023/01/30 02:09:28;;;;;;;;;;;30.50;99.70;;;;;;5088412;28;19912;-69
2023/01/30 02:11:57;;;;;;;;;;;30.60;98.30;;;;;;5092125;28;19912;-69
2023/01/30 02:14:24;;;;;;;;;;;30.20;99.00;;;;;;5091444;28;19915;-65
2023/01/30 02:16:51;;;;;;;;;;;30.20;98.40;;;;;;5091404;28;20322;-66
2023/01/30 02:19:31;;;;;;;;;;;30.30;99.10;;;;;;5090083;28;19915;-65
2023/01/30 02:22:10;;;;;;;;;;;30.40;98.80;;;;;;5088263;28;19913;-68
2023/01/30 02:24:47;;;;;;;;;;;30.50;98.40;;;;;;5072567;28;20395;-66
2023/01/30 02:27:14;;;;;;;;;;;30.60;98.00;;;;;;5072750;28;19921;-67
2023/01/30 02:29:58;;;;;;;;;;;30.70;98.70;;;;;;5087502;28;19912;-66
2023/01/30 02:32:35;;;;;;;;;;;30.90;98.40;;;;;;5081318;28;20659;-66
2023/01/30 02:35:12;;;;;;;;;;;31.30;97.30;;;;;;5090180;28;19916;-66
2023/01/30 02:37:57;;;;;;;;;;;31.60;97.50;;;;;;5089249;28;19912;-67
2023/01/30 02:40:23;;;;;;;;;;;32.00;97.90;;;;;;5090947;28;20422;-65
2023/01/30 02:42:53;;;;;;;;;;;32.40;96.80;;;;;;5089169;28;19921;-65
2023/01/30 02:45:34;;;;;;;;;;;32.90;95.80;;;;;;5090476;28;19908;-65
2023/01/30 02:48:05;;;;;;;;;;;32.70;96.10;;;;;;5091131;28;19973;-65
2023/01/30 02:50:34;;;;;;;;;;;32.80;95.80;;;;;;5091282;28;19914;-67
2023/01/30 02:53:02;;;;;;;;;;;33.10;95.50;;;;;;5090523;28;19908;-67
2023/01/30 02:55:29;;;;;;;;;;;33.00;95.00;;;;;;5089241;28;19916;-69
2023/01/30 02:57:55;;;;;;;;;;;33.20;94.60;;;;;;5091433;28;19912;-66
2023/01/30 03:00:42;;;;;;;;;;;33.00;94.00;;;;;;5088295;28;20023;-67
2023/01/30 03:03:11;;;;;;;;;;;32.80;93.90;;;;;;5063619;28;19916;-68
2023/01/30 03:06:01;;;;;;;;;;;32.60;94.10;;;;;;5078670;28;19908;-68
2023/01/30 03:08:28;;;;;;;;;;;32.70;94.10;;;;;;5079608;28;19923;-69
2023/01/30 03:10:58;;;;;;;;;;;33.20;93.60;;;;;;5089845;28;20022;-71
2023/01/30 03:13:25;;;;;;;;;;;33.20;92.90;;;;;;5088033;28;20373;-70
2023/01/30 03:15:55;;;;;;;;;;;33.10;93.30;;;;;;5090397;28;19960;-68
2023/01/30 03:18:21;;;;;;;;;;;33.30;93.00;;;;;;5089134;28;19912;-68
2023/01/30 03:20:48;;;;;;;;;;;33.50;93.00;;;;;;5089593;28;19916;-71
2023/01/30 03:23:15;;;;;;;;;;;33.50;91.80;;;;;;5091658;28;19913;-70
2023/01/30 03:25:42;;;;;;;;;;;33.40;92.40;;;;;;5088460;28;20013;-66
2023/01/30 03:28:10;;;;;;;;;;;33.70;91.70;;;;;;5088635;28;20395;-67
2023/01/30 03:30:36;;;;;;;;;;;34.20;91.30;;;;;;5090397;28;19919;-68
2023/01/30 03:33:03;;;;;;;;;;;35.70;90.70;;;;;;5089945;28;19919;-68
2023/01/30 03:35:30;;;;;;;;;;;36.50;88.90;;;;;;5089787;28;19916;-67
2023/01/30 03:37:57;;;;;;;;;;;37.80;87.20;;;;;;5088342;28;19916;-68
2023/01/30 03:40:24;;;;;;;;;;;38.80;83.80;;;;;;5089795;28;19919;-68
2023/01/30 03:42:51;;;;;;;;;;;39.40;80.90;;;;;;5088478;28;19947;-68
2023/01/30 03:45:17;;;;;;;;;;;39.80;79.80;;;;;;5089842;28;19908;-69
2023/01/30 03:47:44;;;;;;;;;;;40.50;78.80;;;;;;5088260;28;19925;-68
2023/01/30 03:50:11;;;;;;;;;;;39.70;76.40;;;;;;5096832;28;19963;-68
2023/01/30 03:52:37;;;;;;;;;;;38.50;79.10;;;;;;5097594;28;19987;-67
2023/01/30 03:55:04;;;;;;;;;;;37.10;81.50;;;;;;5090870;28;19918;-68
2023/01/30 03:57:31;;;;;;;;;;;36.20;83.00;;;;;;5089614;28;19920;-68
2023/01/30 03:59:57;;;;;;;;;;;35.20;86.00;;;;;;5086874;28;19912;-68
2023/01/30 04:02:25;;;;;;;;;;;34.40;87.50;;;;;;5085841;28;20003;-68
2023/01/30 04:04:52;;;;;;;;;;;33.90;88.30;;;;;;5090677;28;20322;-67
2023/01/30 04:07:18;;;;;;;;;;;33.50;90.00;;;;;;5094062;28;19923;-68
2023/01/30 04:09:45;;;;;;;;;;;33.50;90.10;;;;;;5093053;28;19916;-66
2023/01/30 04:12:12;;;;;;;;;;;33.60;90.00;;;;;;5090268;28;19919;-70
2023/01/30 04:14:39;;;;;;;;;;;33.90;89.20;;;;;;5093048;28;19916;-67
2023/01/30 04:17:05;;;;;;;;;;;33.80;89.30;;;;;;5092581;28;20003;-68
2023/01/30 04:19:32;;;;;;;;;;;33.30;90.00;;;;;;5092187;28;19920;-68
2023/01/30 04:21:59;;;;;;;;;;;32.90;90.50;;;;;;5092975;28;19908;-67
2023/01/30 04:24:26;;;;;;;;;;;32.50;91.40;;;;;;5090309;28;19912;-70
2023/01/30 04:26:52;;;;;;;;;;;32.00;91.70;;;;;;5093207;28;19935;-72
2023/01/30 04:29:19;;;;;;;;;;;31.60;92.50;;;;;;5093412;28;20004;-72
2023/01/30 04:31:45;;;;;;;;;;;31.50;92.70;;;;;;5092604;28;19920;-64
2023/01/30 04:34:12;;;;;;;;;;;31.30;93.10;;;;;;5082087;28;19947;-66
2023/01/30 04:36:39;;;;;;;;;;;31.20;93.50;;;;;;5089996;28;19920;-67
2023/01/30 04:39:05;;;;;;;;;;;31.10;93.70;;;;;;5092319;28;20015;-68
2023/01/30 04:41:32;;;;;;;;;;;31.10;94.00;;;;;;5092345;28;19953;-68
2023/01/30 04:43:59;;;;;;;;;;;30.90;94.30;;;;;;5089695;28;19916;-66
2023/01/30 04:46:26;;;;;;;;;;;30.60;94.90;;;;;;5073391;28;19994;-66
2023/01/30 04:48:52;;;;;;;;;;;30.20;95.30;;;;;;5079373;28;20010;-66
2023/01/30 04:51:19;;;;;;;;;;;29.80;96.00;;;;;;5079194;28;20381;-65
2023/01/30 04:53:46;;;;;;;;;;;29.40;96.50;;;;;;5091029;28;19924;-65
2023/01/30 04:56:12;;;;;;;;;;;29.10;96.90;;;;;;5092085;28;19916;-66
2023/01/30 04:58:39;;;;;;;;;;;28.90;97.20;;;;;;5091843;28;19951;-68
2023/01/30 05:01:20;;;;;;;;;;;28.80;97.90;;;;;;5092110;28;20258;-67
2023/01/30 05:03:49;;;;;;;;;;;28.50;98.30;;;;;;5088625;28;20288;-68
2023/01/30 05:06:15;;;;;;;;;;;28.40;98.50;;;;;;5088071;28;20003;-68
2023/01/30 05:08:42;;;;;;;;;;;28.30;99.10;;;;;;5091845;28;19924;-71
2023/01/30 05:11:09;;;;;;;;;;;28.10;99.80;;;;;;5091354;28;19973;-66
2023/01/30 05:13:36;;;;;;;;;;;28.10;99.90;;;;;;5088386;28;20007;-68
2023/01/30 05:16:03;;;;;;;;;;;28.00;99.90;;;;;;5088705;28;20034;-70
2023/01/30 05:18:30;;;;;;;;;;;28.00;99.90;;;;;;5087654;28;19920;-69
2023/01/30 05:21:24;;;;;;;;;;;28.00;99.90;;;;;;5086599;28;20338;-68
2023/01/30 05:23:52;;;;;;;;;;;27.90;99.90;;;;;;5081662;28;19916;-68
2023/01/30 05:26:19;;;;;;;;;;;27.80;99.90;;;;;;5088961;28;19908;-69
2023/01/30 05:28:50;;;;;;;;;;;27.70;99.90;;;;;;5090485;28;19924;-68
2023/01/30 05:31:17;;;;;;;;;;;27.70;99.90;;;;;;5090716;28;19923;-69
2023/01/30 05:33:47;;;;;;;;;;;27.70;99.90;;;;;;5077642;28;19961;-68
2023/01/30 05:36:14;;;;;;;;;;;27.60;99.90;;;;;;5080404;28;19927;-67
2023/01/30 05:38:44;;;;;;;;;;;27.50;99.90;;;;;;5086448;28;20003;-68
2023/01/30 05:41:12;;;;;;;;;;;27.40;99.90;;;;;;5092182;28;19912;-70
2023/01/30 05:43:39;;;;;;;;;;;27.40;99.90;;;;;;5094015;28;19911;-71
2023/01/30 05:46:06;;;;;;;;;;;27.20;99.90;;;;;;5082381;28;20277;-69
2023/01/30 05:48:33;;;;;;;;;;;27.10;99.90;;;;;;5091489;28;20269;-72
2023/01/30 05:51:00;;;;;;;;;;;27.00;99.90;;;;;;5085125;28;20285;-72
2023/01/30 05:53:29;;;;;;;;;;;26.70;99.90;;;;;;5075413;28;19913;-74
2023/01/30 05:55:57;;;;;;;;;;;26.50;99.90;;;;;;5089882;28;19916;-72
2023/01/30 05:58:24;;;;;;;;;;;26.40;99.90;;;;;;5090350;28;20308;-73
2023/01/30 06:00:51;;;;;;;;;;;26.20;99.90;;;;;;5088957;28;19912;-72
2023/01/30 06:03:17;;;;;;;;;;;26.00;99.90;;;;;;5091827;28;19908;-71
2023/01/30 06:05:44;;;;;;;;;;;25.80;99.90;;;;;;5090541;28;19908;-73
2023/01/30 06:08:11;;;;;;;;;;;25.60;99.90;;;;;;5087303;28;19924;-70
2023/01/30 06:10:37;;;;;;;;;;;25.50;99.90;;;;;;5089796;28;19912;-71
2023/01/30 06:13:04;;;;;;;;;;;25.40;99.90;;;;;;5090384;28;19908;-72
2023/01/30 06:15:32;;;;;;;;;;;25.40;99.90;;;;;;5087914;28;19909;-73
2023/01/30 06:17:58;;;;;;;;;;;25.30;99.90;;;;;;5089588;28;19916;-73
2023/01/30 06:20:25;;;;;;;;;;;25.10;99.90;;;;;;5090750;28;19916;-71
2023/01/30 06:22:52;;;;;;;;;;;24.90;99.90;;;;;;5089799;28;19912;-73
2023/01/30 06:25:18;;;;;;;;;;;24.80;99.90;;;;;;5083213;28;20292;-74
2023/01/30 06:27:45;;;;;;;;;;;24.60;99.90;;;;;;5073945;28;19931;-71
2023/01/30 06:30:12;;;;;;;;;;;24.50;99.90;;;;;;5091043;28;19948;-69
2023/01/30 06:32:40;;;;;;;;;;;24.40;99.90;;;;;;5086028;28;19909;-72
2023/01/30 06:35:07;;;;;;;;;;;24.30;99.90;;;;;;5078455;28;20344;-72
2023/01/30 06:37:34;;;;;;;;;;;24.10;99.90;;;;;;5073177;28;20417;-72
2023/01/30 06:40:00;;;;;;;;;;;24.00;99.90;;;;;;5089832;28;19918;-70
2023/01/30 06:42:27;;;;;;;;;;;23.90;99.90;;;;;;5086858;28;19912;-72
2023/01/30 06:44:53;;;;;;;;;;;23.80;99.90;;;;;;5080166;28;20743;-69
2023/01/30 06:47:21;;;;;;;;;;;23.70;99.90;;;;;;5089568;28;19916;-70
2023/01/30 06:49:48;;;;;;;;;;;23.60;99.90;;;;;;5075183;28;19965;-70
2023/01/30 06:52:14;;;;;;;;;;;23.60;99.90;;;;;;5084775;28;19913;-70
2023/01/30 06:54:41;;;;;;;;;;;23.50;99.90;;;;;;5078055;28;19913;-72
2023/01/30 06:57:08;;;;;;;;;;;23.50;99.90;;;;;;5091506;28;20043;-70
2023/01/30 06:59:35;;;;;;;;;;;23.40;99.90;;;;;;5091066;28;19933;-70
2023/01/30 07:02:01;;;;;;;;;;;23.40;99.90;;;;;;5083929;28;19966;-70
2023/01/30 07:04:28;;;;;;;;;;;23.20;99.90;;;;;;5088627;28;19919;-72
2023/01/30 07:06:55;;;;;;;;;;;23.20;99.90;;;;;;5087979;28;19978;-69
2023/01/30 07:09:22;;;;;;;;;;;23.20;99.90;;;;;;5089761;28;20080;-69
2023/01/30 07:11:49;;;;;;;;;;;23.20;99.90;;;;;;5087654;28;20438;-71
2023/01/30 07:14:16;;;;;;;;;;;23.20;99.90;;;;;;5084527;28;19916;-69
2023/01/30 07:16:43;;;;;;;;;;;23.10;99.90;;;;;;5083208;28;19958;-70
2023/01/30 07:19:09;;;;;;;;;;;23.10;99.90;;;;;;5089166;28;19912;-72
2023/01/30 07:21:36;;;;;;;;;;;23.10;99.90;;;;;;5091169;28;19919;-69
2023/01/30 07:24:02;;;;;;;;;;;23.10;99.90;;;;;;5077221;28;20048;-69
2023/01/30 07:26:30;;;;;;;;;;;23.10;99.90;;;;;;5073200;28;19916;-69
2023/01/30 07:28:56;;;;;;;;;;;23.00;99.90;;;;;;5075504;28;19916;-69
2023/01/30 07:31:23;;;;;;;;;;;23.10;99.90;;;;;;5091547;28;19963;-70
2023/01/30 07:33:49;;;;;;;;;;;23.00;99.90;;;;;;5081983;28;20374;-68
2023/01/30 07:36:16;;;;;;;;;;;23.00;99.90;;;;;;5073091;28;19965;-68
2023/01/30 07:38:43;;;;;;;;;;;23.00;99.90;;;;;;5079774;28;19959;-69
2023/01/30 07:41:09;;;;;;;;;;;23.00;99.90;;;;;;5094511;28;19995;-69
2023/01/30 07:43:36;;;;;;;;;;;23.00;99.90;;;;;;5082240;28;19912;-69
2023/01/30 07:46:03;;;;;;;;;;;22.90;99.90;;;;;;5078691;28;19919;-74
2023/01/30 07:48:30;;;;;;;;;;;22.90;99.90;;;;;;5075278;28;19947;-67
2023/01/30 07:50:56;;;;;;;;;;;22.90;99.90;;;;;;5092426;28;20289;-69
2023/01/30 07:53:23;;;;;;;;;;;22.90;99.90;;;;;;5095260;28;19916;-70
2023/01/30 07:55:50;;;;;;;;;;;22.90;99.90;;;;;;5093493;28;19912;-68
2023/01/30 07:58:17;;;;;;;;;;;22.80;99.90;;;;;;5094072;28;19908;-69
2023/01/30 08:00:43;;;;;;;;;;;22.80;99.90;;;;;;5091975;28;19916;-70
2023/01/30 08:03:11;;;;;;;;;;;22.80;99.90;;;;;;5093280;28;19995;-71
2023/01/30 08:05:38;;;;;;;;;;;22.80;99.90;;;;;;5092029;28;19912;-69
2023/01/30 08:08:04;;;;;;;;;;;22.80;99.90;;;;;;5093512;28;19931;-71
2023/01/30 08:10:31;;;;;;;;;;;22.80;99.90;;;;;;5094599;28;19912;-74
2023/01/30 08:12:58;;;;;;;;;;;22.80;99.90;;;;;;5093026;28;20443;-73
2023/01/30 08:15:24;;;;;;;;;;;22.80;99.90;;;;;;5081096;28;19917;-75
2023/01/30 08:17:55;;;;;;;;;;;22.70;99.90;;;;;;5074474;28;19908;-77
2023/01/30 08:20:21;;;;;;;;;;;22.70;99.90;;;;;;5085370;28;19919;-72
2023/01/30 08:22:48;;;;;;;;;;;22.70;99.90;;;;;;5092864;28;20353;-73
2023/01/30 08:25:15;;;;;;;;;;;22.70;99.90;;;;;;5094268;28;20270;-75
2023/01/30 08:27:41;;;;;;;;;;;22.70;99.90;;;;;;5103236;28;20292;-76
2023/01/30 08:30:09;;;;;;;;;;;22.70;99.90;;;;;;5099661;28;20011;-75
2023/01/30 08:32:35;;;;;;;;;;;22.70;99.90;;;;;;5094118;28;19943;-73
2023/01/30 08:35:02;;;;;;;;;;;22.70;99.90;;;;;;5101938;28;20491;-76
2023/01/30 08:37:28;;;;;;;;;;;22.70;99.90;;;;;;5104364;28;20007;-74
2023/01/30 08:39:55;;;;;;;;;;;22.70;99.90;;;;;;5100489;28;20369;-75
2023/01/30 08:42:22;;;;;;;;;;;22.70;99.90;;;;;;5112146;28;19907;-71
2023/01/30 08:44:48;;;;;;;;;;;22.70;99.90;;;;;;5096165;28;20534;-71
2023/01/30 08:47:15;;;;;;;;;;;22.70;99.90;;;;;;5099170;28;19920;-71
2023/01/30 08:49:42;;;;;;;;;;;22.60;99.90;;;;;;5099973;28;20390;-74
2023/01/30 08:52:09;;;;;;;;;;;22.60;99.90;;;;;;5100371;28;19912;-72
2023/01/30 08:54:36;;;;;;;;;;;22.60;99.90;;;;;;5101771;28;20007;-75
2023/01/30 08:57:02;;;;;;;;;;;22.60;99.90;;;;;;5092470;28;19912;-74
2023/01/30 08:59:29;;;;;;;;;;;22.60;99.90;;;;;;5090128;28;19920;-73
2023/01/30 09:01:56;;;;;;;;;;;22.60;99.90;;;;;;5096954;28;19912;-71
2023/01/30 09:04:25;;;;;;;;;;;22.60;99.90;;;;;;5094974;28;20284;-75
2023/01/30 09:06:52;;;;;;;;;;;22.60;99.90;;;;;;5093127;28;19964;-71
2023/01/30 09:09:18;;;;;;;;;;;22.60;99.90;;;;;;5092132;28;20012;-72
2023/01/30 09:11:46;;;;;;;;;;;22.60;99.90;;;;;;5090974;28;19966;-73
2023/01/30 09:14:19;;;;;;;;;;;22.50;99.90;;;;;;5093325;28;19908;-72
2023/01/30 09:16:46;;;;;;;;;;;22.50;99.90;;;;;;5092804;28;19920;-72
2023/01/30 09:19:13;;;;;;;;;;;22.40;99.90;;;;;;5090561;28;19968;-74
2023/01/30 09:21:40;;;;;;;;;;;22.50;99.90;;;;;;5090086;28;19999;-73
2023/01/30 09:24:07;;;;;;;;;;;22.40;99.90;;;;;;5093575;28;19912;-72
2023/01/30 09:26:33;;;;;;;;;;;22.40;99.90;;;;;;5092929;28;20009;-71
2023/01/30 09:29:00;;;;;;;;;;;22.30;99.90;;;;;;5093226;28;19916;-72
2023/01/30 09:31:27;;;;;;;;;;;22.40;99.90;;;;;;5092352;28;20319;-72
2023/01/30 09:33:53;;;;;;;;;;;22.30;99.90;;;;;;5093372;28;20295;-72
2023/01/30 09:36:20;;;;;;;;;;;22.30;99.90;;;;;;5093239;28;19927;-68
2023/01/30 09:38:46;;;;;;;;;;;22.30;99.90;;;;;;5092605;28;20368;-67
2023/01/30 09:41:16;;;;;;;;;;;22.30;99.90;;;;;;5091337;28;19912;-68
2023/01/30 09:43:49;;;;;;;;;;;22.20;99.90;;;;;;5087233;28;19916;-70
2023/01/30 09:46:25;;;;;;;;;;;22.20;99.90;;;;;;5087284;28;19912;-68
2023/01/30 09:49:01;;;;;;;;;;;22.20;99.90;;;;;;5087174;28;19920;-66
2023/01/30 09:51:37;;;;;;;;;;;22.20;99.90;;;;;;5088627;28;19912;-70
2023/01/30 09:54:03;;;;;;;;;;;22.20;99.90;;;;;;5087494;28;20376;-68
2023/01/30 09:56:30;;;;;;;;;;;22.10;99.90;;;;;;5093365;28;19912;-69
2023/01/30 09:58:58;;;;;;;;;;;22.20;99.90;;;;;;5092539;28;20011;-68
2023/01/30 10:01:38;;;;;;;;;;;22.10;99.90;;;;;;5088814;28;19957;-69
2023/01/30 10:04:11;;;;;;;;;;;22.10;99.90;;;;;;5087446;28;19997;-68
2023/01/30 10:06:43;;;;;;;;;;;22.10;99.90;;;;;;5089467;28;19970;-68
2023/01/30 10:09:10;;;;;;;;;;;22.10;99.90;;;;;;5089256;28;19923;-65
2023/01/30 10:11:54;;;;;;;;;;;22.00;99.90;;;;;;5091021;28;20384;-68
2023/01/30 10:14:36;;;;;;;;;;;22.00;99.90;;;;;;5092298;28;19908;-70
2023/01/30 10:17:06;;;;;;;;;;;22.00;99.90;;;;;;5091935;28;20327;-68
2023/01/30 10:19:41;;;;;;;;;;;21.90;99.90;;;;;;5091558;28;19912;-66
2023/01/30 10:22:30;;;;;;;;;;;21.90;99.90;;;;;;5090350;28;19995;-68
2023/01/30 10:25:02;;;;;;;;;;;21.80;99.90;;;;;;5091265;28;20073;-66
2023/01/30 10:27:30;;;;;;;;;;;21.80;99.90;;;;;;5089949;28;20268;-65
2023/01/30 10:29:58;;;;;;;;;;;21.80;99.90;;;;;;5089267;28;19917;-68
2023/01/30 10:32:43;;;;;;;;;;;21.80;99.90;;;;;;5090816;28;20325;-69
2023/01/30 10:35:20;;;;;;;;;;;21.70;99.90;;;;;;5087564;28;19920;-68
2023/01/30 10:37:57;;;;;;;;;;;21.70;99.90;;;;;;5088844;28;19916;-69
2023/01/30 10:40:33;;;;;;;;;;;21.70;99.90;;;;;;5088684;28;19912;-65
2023/01/30 10:43:26;;;;;;;;;;;21.70;99.90;;;;;;5091264;28;20365;-68
2023/01/30 10:46:02;;;;;;;;;;;21.60;99.90;;;;;;5080471;28;20288;-65
2023/01/30 10:48:47;;;;;;;;;;;21.80;99.90;;;;;;5090197;28;19944;-65
2023/01/30 10:51:24;;;;;;;;;;;21.70;99.90;;;;;;5089992;28;19927;-64
2023/01/30 10:54:12;;;;;;;;;;;21.70;99.90;;;;;;5089832;28;19927;-65
2023/01/30 10:57:06;;;;;;;;;;;21.70;99.90;;;;;;5090506;28;19934;-66
2023/01/30 10:59:51;;;;;;;;;;;21.70;99.90;;;;;;5069600;28;20459;-66
2023/01/30 11:02:21;;;;;;;;;;;21.70;99.90;;;;;;5091140;28;19912;-64
2023/01/30 11:05:10;;;;;;;;;;;21.70;99.90;;;;;;5088431;28;19997;-66
2023/01/30 11:07:37;;;;;;;;;;;21.70;99.90;;;;;;5085826;28;19930;-60
2023/01/30 11:10:14;;;;;;;;;;;21.60;99.90;;;;;;5090633;28;19987;-64
2023/01/30 11:12:40;;;;;;;;;;;21.70;99.90;;;;;;5087567;28;19923;-62
2023/01/30 11:15:07;;;;;;;;;;;21.70;99.90;;;;;;5079191;28;19912;-64
2023/01/30 11:17:35;;;;;;;;;;;21.70;99.90;;;;;;5072001;28;19915;-63
2023/01/30 11:20:05;;;;;;;;;;;21.70;99.90;;;;;;5072045;28;19962;-63
2023/01/30 11:22:33;;;;;;;;;;;21.70;99.90;;;;;;5072206;28;19917;-65
2023/01/30 11:25:05;;;;;;;;;;;21.70;99.90;;;;;;5072117;28;19916;-65
2023/01/30 11:27:33;;;;;;;;;;;21.80;99.90;;;;;;5087010;28;19920;-63
2023/01/30 11:30:12;;;;;;;;;;;21.80;99.90;;;;;;5089477;28;19912;-63
2023/01/30 11:32:39;;;;;;;;;;;21.80;99.90;;;;;;5082305;28;20011;-64
2023/01/30 11:35:08;;;;;;;;;;;21.80;99.90;;;;;;5091345;28;19916;-64
2023/01/30 11:37:36;;;;;;;;;;;21.80;99.90;;;;;;5089045;28;19912;-67
2023/01/30 11:40:19;;;;;;;;;;;21.80;99.90;;;;;;5090698;28;20128;-65
2023/01/30 11:42:47;;;;;;;;;;;21.80;99.90;;;;;;5091127;28;19908;-65
2023/01/30 11:45:13;;;;;;;;;;;21.80;99.90;;;;;;5089802;28;19912;-66
2023/01/30 11:48:00;;;;;;;;;;;21.80;99.90;;;;;;5092750;28;19959;-63
2023/01/30 11:50:32;;;;;;;;;;;21.80;99.90;;;;;;5092580;28;20396;-65
2023/01/30 11:53:03;;;;;;;;;;;21.70;99.90;;;;;;5089737;28;19916;-65
2023/01/30 11:55:31;;;;;;;;;;;21.70;99.90;;;;;;5090615;28;19995;-69
2023/01/30 11:57:57;;;;;;;;;;;21.80;99.90;;;;;;5089560;28;19912;-66
2023/01/30 12:00:50;;;;;;;;;;;21.80;99.90;;;;;;5091558;28;19908;-68
2023/01/30 12:03:19;;;;;;;;;;;21.80;99.90;;;;;;5089163;28;19908;-65
2023/01/30 12:05:46;;;;;;;;;;;21.80;99.90;;;;;;5091235;28;19908;-65
2023/01/30 12:08:22;;;;;;;;;;;21.80;99.90;;;;;;5087973;28;19956;-68
2023/01/30 12:10:59;;;;;;;;;;;21.80;99.90;;;;;;5091649;28;19915;-69
2023/01/30 12:13:37;;;;;;;;;;;21.80;99.90;;;;;;5091929;28;20287;-65
2023/01/30 12:16:04;;;;;;;;;;;21.80;99.90;;;;;;5091781;28;19916;-64
2023/01/30 12:18:36;;;;;;;;;;;21.80;99.90;;;;;;5091515;28;19908;-63
2023/01/30 12:21:09;;;;;;;;;;;21.80;99.90;;;;;;5091077;28;19919;-67
2023/01/30 12:23:43;;;;;;;;;;;21.80;99.90;;;;;;5085441;28;20007;-65
2023/01/30 12:26:28;;;;;;;;;;;21.80;99.90;;;;;;5072365;28;20388;-68
2023/01/30 12:29:01;;;;;;;;;;;21.80;99.90;;;;;;5074777;28;20011;-65
2023/01/30 12:31:28;;;;;;;;;;;21.80;99.90;;;;;;5075191;28;19908;-63
2023/01/30 12:33:55;;;;;;;;;;;21.80;99.90;;;;;;5074948;28;19909;-66
2023/01/30 12:36:22;;;;;;;;;;;21.90;99.90;;;;;;5074796;28;19920;-67
2023/01/30 12:38:48;;;;;;;;;;;21.80;99.90;;;;;;5075408;28;20357;-63
2023/01/30 12:41:24;;;;;;;;;;;21.90;99.90;;;;;;5075286;28;19924;-66
2023/01/30 12:43:57;;;;;;;;;;;21.90;99.90;;;;;;5079540;28;19916;-65
2023/01/30 12:46:24;;;;;;;;;;;21.80;99.90;;;;;;5081724;28;20005;-64
2023/01/30 12:48:55;;;;;;;;;;;21.80;99.90;;;;;;5074578;28;19923;-64
2023/01/30 12:51:22;;;;;;;;;;;21.80;99.90;;;;;;5094528;28;20010;-68
2023/01/30 12:53:58;;;;;;;;;;;21.80;99.90;;;;;;5095042;28;19916;-65
2023/01/30 12:56:42;;;;;;;;;;;21.80;99.90;;;;;;5095004;28;20434;-65
2023/01/30 12:59:21;;;;;;;;;;;21.80;99.90;;;;;;5094341;28;19908;-71
2023/01/30 13:01:56;;;;;;;;;;;21.80;99.90;;;;;;5094582;28;20028;-64
2023/01/30 13:04:40;;;;;;;;;;;21.90;99.90;;;;;;5094821;28;20390;-62
2023/01/30 13:07:07;;;;;;;;;;;21.90;99.90;;;;;;5074080;28;19917;-65
2023/01/30 13:09:36;;;;;;;;;;;21.90;99.90;;;;;;5074156;28;20010;-64
2023/01/30 13:12:06;;;;;;;;;;;21.90;99.90;;;;;;5074011;28;19908;-70
2023/01/30 13:14:41;;;;;;;;;;;21.80;99.90;;;;;;5077076;28;19935;-66
2023/01/30 13:17:14;;;;;;;;;;;21.90;99.90;;;;;;5094403;28;19950;-67
2023/01/30 13:19:51;;;;;;;;;;;21.90;99.90;;;;;;5087351;28;19956;-68
2023/01/30 13:22:27;;;;;;;;;;;21.80;99.90;;;;;;5073641;28;19955;-67
2023/01/30 13:25:14;;;;;;;;;;;21.80;99.90;;;;;;5073923;28;19909;-66
2023/01/30 13:27:44;;;;;;;;;;;21.80;99.90;;;;;;5073179;28;20306;-68
2023/01/30 13:30:15;;;;;;;;;;;21.90;99.90;;;;;;5074198;28;19915;-67
2023/01/30 13:32:51;;;;;;;;;;;21.80;99.90;;;;;;5073976;28;19912;-68
2023/01/30 13:35:37;;;;;;;;;;;21.80;99.90;;;;;;5073995;28;19920;-71
2023/01/30 13:38:04;;;;;;;;;;;21.80;99.90;;;;;;5072981;28;20319;-66
2023/01/30 13:40:42;;;;;;;;;;;21.80;99.90;;;;;;5073774;28;19970;-65
2023/01/30 13:43:09;;;;;;;;;;;21.80;99.90;;;;;;5073745;28;20562;-65
2023/01/30 13:45:37;;;;;;;;;;;21.80;99.90;;;;;;5085224;28;19908;-68
2023/01/30 13:48:21;;;;;;;;;;;21.80;99.90;;;;;;5084724;28;19920;-65
2023/01/30 13:50:51;;;;;;;;;;;21.90;99.90;;;;;;5073276;28;19912;-65
2023/01/30 13:53:24;;;;;;;;;;;21.80;99.90;;;;;;5090421;28;20254;-64
2023/01/30 13:55:56;;;;;;;;;;;21.80;99.90;;;;;;5093525;28;20002;-65
2023/01/30 13:58:29;;;;;;;;;;;21.80;99.90;;;;;;5093687;28;20033;-68
2023/01/30 14:00:56;;;;;;;;;;;21.90;99.90;;;;;;5093385;28;19908;-65
2023/01/30 14:03:29;;;;;;;;;;;21.80;99.90;;;;;;5093910;28;19908;-65
2023/01/30 14:06:01;;;;;;;;;;;21.90;99.90;;;;;;5093485;28;19912;-65
2023/01/30 14:08:29;;;;;;;;;;;21.80;99.90;;;;;;5092538;28;19996;-65
2023/01/30 14:10:56;;;;;;;;;;;21.80;99.90;;;;;;5092939;28;20000;-64
2023/01/30 14:13:24;;;;;;;;;;;21.80;99.90;;;;;;5093048;28;20409;-72
2023/01/30 14:16:02;;;;;;;;;;;21.90;99.90;;;;;;5092343;28;20300;-66
2023/01/30 14:18:38;;;;;;;;;;;21.90;99.90;;;;;;5092994;28;19908;-67
2023/01/30 14:21:11;;;;;;;;;;;21.90;99.90;;;;;;5093029;28;19908;-69
2023/01/30 14:23:38;;;;;;;;;;;21.80;99.90;;;;;;5092933;28;19909;-64
2023/01/30 14:26:05;;;;;;;;;;;21.80;99.90;;;;;;5092994;28;20280;-65
2023/01/30 14:28:31;;;;;;;;;;;21.90;99.90;;;;;;5092578;28;19916;-67
2023/01/30 14:30:59;;;;;;;;;;;21.90;99.90;;;;;;5092451;28;20558;-64
2023/01/30 14:33:25;;;;;;;;;;;21.90;99.90;;;;;;5092568;28;19908;-64
2023/01/30 14:35:58;;;;;;;;;;;21.90;99.90;;;;;;5092614;28;19942;-67